sensor_id;sensor_type;location;lat;lon;timestamp;pressure;altitude;pressure_sealevel;temperature;humidity
60832;BME280;46665;51.558;-0.448;2023-06-04T00:01:02;101917.63;;;13.24;65.60
60832;BME280;46665;51.558;-0.448;2023-06-04T00:03:27;101921.69;;;13.16;65.52
60832;BME280;46665;51.558;-0.448;2023-06-04T00:05:53;101912.63;;;13.06;66.81
60832;BME280;46665;51.558;-0.448;2023-06-04T00:08:18;101906.06;;;12.96;67.90
60832;BME280;46665;51.558;-0.448;2023-06-04T00:10:44;101904.66;;;12.89;68.36
60832;BME280;46665;51.558;-0.448;2023-06-04T00:13:10;101907.34;;;12.84;69.80
60832;BME280;46665;51.558;-0.448;2023-06-04T00:15:35;101905.69;;;12.83;68.82
60832;BME280;46665;51.558;-0.448;2023-06-04T00:18:00;101908.44;;;12.83;69.13
60832;BME280;46665;51.558;-0.448;2023-06-04T00:20:26;101906.25;;;12.79;69.95
60832;BME280;46665;51.558;-0.448;2023-06-04T00:22:51;101903.75;;;12.78;70.11
60832;BME280;46665;51.558;-0.448;2023-06-04T00:25:16;101906.22;;;12.74;70.55
60832;BME280;46665;51.558;-0.448;2023-06-04T00:27:42;101904.00;;;12.66;70.40
60832;BME280;46665;51.558;-0.448;2023-06-04T00:30:08;101907.25;;;12.68;71.39
60832;BME280;46665;51.558;-0.448;2023-06-04T00:32:33;101902.84;;;12.62;71.57
60832;BME280;46665;51.558;-0.448;2023-06-04T00:34:59;101906.66;;;12.56;72.26
60832;BME280;46665;51.558;-0.448;2023-06-04T00:37:25;101905.56;;;12.57;72.39
60832;BME280;46665;51.558;-0.448;2023-06-04T00:39:51;101914.00;;;12.55;73.10
60832;BME280;46665;51.558;-0.448;2023-06-04T00:42:17;101914.81;;;12.51;73.47
60832;BME280;46665;51.558;-0.448;2023-06-04T00:44:42;101916.94;;;12.44;74.04
60832;BME280;46665;51.558;-0.448;2023-06-04T00:47:16;101912.03;;;12.41;73.93
60832;BME280;46665;51.558;-0.448;2023-06-04T00:49:42;101908.44;;;12.40;74.52
60832;BME280;46665;51.558;-0.448;2023-06-04T00:52:09;101902.13;;;12.34;74.57
60832;BME280;46665;51.558;-0.448;2023-06-04T00:54:35;101906.47;;;12.30;74.75
60832;BME280;46665;51.558;-0.448;2023-06-04T00:57:01;101907.56;;;12.29;74.67
60832;BME280;46665;51.558;-0.448;2023-06-04T00:59:29;101907.28;;;12.26;75.14
60832;BME280;46665;51.558;-0.448;2023-06-04T01:02:08;101902.63;;;12.26;75.61
60832;BME280;46665;51.558;-0.448;2023-06-04T01:04:54;101906.94;;;12.22;75.67
60832;BME280;46665;51.558;-0.448;2023-06-04T01:07:25;101900.09;;;12.20;75.88
60832;BME280;46665;51.558;-0.448;2023-06-04T01:09:52;101907.97;;;12.11;76.95
60832;BME280;46665;51.558;-0.448;2023-06-04T01:12:18;101910.94;;;12.09;77.37
60832;BME280;46665;51.558;-0.448;2023-06-04T01:14:43;101903.28;;;12.06;77.53
60832;BME280;46665;51.558;-0.448;2023-06-04T01:17:17;101912.25;;;12.02;78.11
60832;BME280;46665;51.558;-0.448;2023-06-04T01:22:44;101914.59;;;11.88;79.07
60832;BME280;46665;51.558;-0.448;2023-06-04T01:25:28;101908.47;;;11.81;80.30
60832;BME280;46665;51.558;-0.448;2023-06-04T01:27:57;101907.34;;;11.77;80.16
60832;BME280;46665;51.558;-0.448;2023-06-04T01:30:34;101905.97;;;11.74;81.19
60832;BME280;46665;51.558;-0.448;2023-06-04T01:33:08;101896.38;;;11.71;81.19
60832;BME280;46665;51.558;-0.448;2023-06-04T01:35:34;101890.13;;;11.71;81.72
60832;BME280;46665;51.558;-0.448;2023-06-04T01:37:59;101895.00;;;11.69;81.43
60832;BME280;46665;51.558;-0.448;2023-06-04T01:40:25;101881.91;;;11.66;82.12
60832;BME280;46665;51.558;-0.448;2023-06-04T01:42:51;101890.88;;;11.66;82.11
60832;BME280;46665;51.558;-0.448;2023-06-04T01:45:17;101893.31;;;11.63;82.78
60832;BME280;46665;51.558;-0.448;2023-06-04T01:47:42;101897.63;;;11.59;83.90
60832;BME280;46665;51.558;-0.448;2023-06-04T01:50:08;101900.31;;;11.54;84.16
60832;BME280;46665;51.558;-0.448;2023-06-04T01:52:38;101894.28;;;11.52;84.37
60832;BME280;46665;51.558;-0.448;2023-06-04T01:55:05;101889.91;;;11.50;84.84
60832;BME280;46665;51.558;-0.448;2023-06-04T01:57:32;101898.28;;;11.44;85.62
60832;BME280;46665;51.558;-0.448;2023-06-04T01:59:58;101887.34;;;11.39;85.79
60832;BME280;46665;51.558;-0.448;2023-06-04T02:02:23;101884.31;;;11.35;85.93
60832;BME280;46665;51.558;-0.448;2023-06-04T02:04:49;101882.34;;;11.31;86.59
60832;BME280;46665;51.558;-0.448;2023-06-04T02:07:18;101890.75;;;11.29;86.56
60832;BME280;46665;51.558;-0.448;2023-06-04T02:09:46;101884.78;;;11.27;87.47
60832;BME280;46665;51.558;-0.448;2023-06-04T02:12:11;101882.47;;;11.19;87.67
60832;BME280;46665;51.558;-0.448;2023-06-04T02:14:37;101881.94;;;11.17;88.27
60832;BME280;46665;51.558;-0.448;2023-06-04T02:17:03;101893.59;;;11.12;88.82
60832;BME280;46665;51.558;-0.448;2023-06-04T02:19:29;101881.25;;;11.04;89.67
60832;BME280;46665;51.558;-0.448;2023-06-04T02:21:55;101885.03;;;11.03;90.14
60832;BME280;46665;51.558;-0.448;2023-06-04T02:24:21;101885.28;;;11.02;90.33
60832;BME280;46665;51.558;-0.448;2023-06-04T02:26:47;101885.81;;;10.99;91.56
60832;BME280;46665;51.558;-0.448;2023-06-04T02:29:12;101883.31;;;10.97;92.04
60832;BME280;46665;51.558;-0.448;2023-06-04T02:31:37;101887.94;;;10.97;92.90
60832;BME280;46665;51.558;-0.448;2023-06-04T02:34:03;101881.59;;;10.91;93.20
60832;BME280;46665;51.558;-0.448;2023-06-04T02:36:28;101882.75;;;10.95;93.06
60832;BME280;46665;51.558;-0.448;2023-06-04T02:38:54;101889.59;;;10.98;93.24
60832;BME280;46665;51.558;-0.448;2023-06-04T02:41:21;101892.81;;;10.95;93.63
60832;BME280;46665;51.558;-0.448;2023-06-04T02:43:46;101879.16;;;10.90;95.09
60832;BME280;46665;51.558;-0.448;2023-06-04T02:46:11;101886.72;;;10.88;94.83
60832;BME280;46665;51.558;-0.448;2023-06-04T02:48:37;101880.06;;;10.78;96.43
60832;BME280;46665;51.558;-0.448;2023-06-04T02:51:02;101890.97;;;10.78;96.62
60832;BME280;46665;51.558;-0.448;2023-06-04T02:53:27;101886.22;;;10.69;97.84
60832;BME280;46665;51.558;-0.448;2023-06-04T02:55:53;101887.56;;;10.66;97.61
60832;BME280;46665;51.558;-0.448;2023-06-04T02:58:19;101888.03;;;10.63;98.45
60832;BME280;46665;51.558;-0.448;2023-06-04T03:00:46;101869.75;;;10.58;98.43
60832;BME280;46665;51.558;-0.448;2023-06-04T03:03:12;101880.72;;;10.63;98.35
60832;BME280;46665;51.558;-0.448;2023-06-04T03:05:37;101876.25;;;10.57;98.74
60832;BME280;46665;51.558;-0.448;2023-06-04T03:08:05;101878.97;;;10.57;98.74
60832;BME280;46665;51.558;-0.448;2023-06-04T03:10:30;101885.25;;;10.58;99.38
60832;BME280;46665;51.558;-0.448;2023-06-04T03:12:56;101875.38;;;10.52;100.00
60832;BME280;46665;51.558;-0.448;2023-06-04T03:15:21;101885.59;;;10.45;100.00
60832;BME280;46665;51.558;-0.448;2023-06-04T03:17:47;101885.84;;;10.43;100.00
60832;BME280;46665;51.558;-0.448;2023-06-04T03:20:12;101878.09;;;10.35;100.00
60832;BME280;46665;51.558;-0.448;2023-06-04T03:22:37;101879.94;;;10.29;100.00
60832;BME280;46665;51.558;-0.448;2023-06-04T03:25:04;101878.28;;;10.28;100.00
60832;BME280;46665;51.558;-0.448;2023-06-04T03:27:31;101877.91;;;10.25;100.00
60832;BME280;46665;51.558;-0.448;2023-06-04T03:29:57;101873.81;;;10.22;100.00
60832;BME280;46665;51.558;-0.448;2023-06-04T03:32:22;101885.78;;;10.21;100.00
60832;BME280;46665;51.558;-0.448;2023-06-04T03:34:48;101877.34;;;10.23;100.00
60832;BME280;46665;51.558;-0.448;2023-06-04T03:37:13;101875.13;;;10.19;100.00
60832;BME280;46665;51.558;-0.448;2023-06-04T03:39:39;101871.00;;;10.17;100.00
60832;BME280;46665;51.558;-0.448;2023-06-04T03:42:05;101866.88;;;10.14;100.00
60832;BME280;46665;51.558;-0.448;2023-06-04T03:44:30;101872.09;;;10.16;100.00
60832;BME280;46665;51.558;-0.448;2023-06-04T03:46:56;101871.75;;;10.12;100.00
60832;BME280;46665;51.558;-0.448;2023-06-04T03:49:21;101872.59;;;10.13;100.00
60832;BME280;46665;51.558;-0.448;2023-06-04T03:51:47;101868.78;;;10.14;100.00
60832;BME280;46665;51.558;-0.448;2023-06-04T03:54:13;101860.88;;;10.12;100.00
60832;BME280;46665;51.558;-0.448;2023-06-04T03:56:42;101869.38;;;10.16;100.00
60832;BME280;46665;51.558;-0.448;2023-06-04T03:59:08;101873.50;;;10.18;100.00
60832;BME280;46665;51.558;-0.448;2023-06-04T04:01:36;101871.00;;;10.17;100.00
60832;BME280;46665;51.558;-0.448;2023-06-04T04:04:01;101873.72;;;10.17;100.00
60832;BME280;46665;51.558;-0.448;2023-06-04T04:06:28;101875.31;;;10.13;100.00
60832;BME280;46665;51.558;-0.448;2023-06-04T04:08:54;101874.97;;;10.09;100.00
60832;BME280;46665;51.558;-0.448;2023-06-04T04:11:20;101879.28;;;10.05;100.00
60832;BME280;46665;51.558;-0.448;2023-06-04T04:13:45;101884.72;;;10.05;100.00
60832;BME280;46665;51.558;-0.448;2023-06-04T04:16:11;101875.97;;;10.03;100.00
60832;BME280;46665;51.558;-0.448;2023-06-04T04:18:37;101878.69;;;10.03;100.00
60832;BME280;46665;51.558;-0.448;2023-06-04T04:21:04;101872.44;;;10.03;100.00
60832;BME280;46665;51.558;-0.448;2023-06-04T04:23:31;101874.88;;;10.04;100.00
60832;BME280;46665;51.558;-0.448;2023-06-04T04:25:59;101876.56;;;10.05;100.00
60832;BME280;46665;51.558;-0.448;2023-06-04T04:28:25;101880.59;;;10.03;100.00
60832;BME280;46665;51.558;-0.448;2023-06-04T04:30:55;101876.94;;;9.97;100.00
60832;BME280;46665;51.558;-0.448;2023-06-04T04:33:22;101876.94;;;9.97;100.00
60832;BME280;46665;51.558;-0.448;2023-06-04T04:35:50;101869.38;;;9.99;100.00
60832;BME280;46665;51.558;-0.448;2023-06-04T04:38:16;101873.72;;;10.00;100.00
60832;BME280;46665;51.558;-0.448;2023-06-04T04:40:43;101871.50;;;9.97;100.00
60832;BME280;46665;51.558;-0.448;2023-06-04T04:43:08;101868.47;;;9.93;100.00
60832;BME280;46665;51.558;-0.448;2023-06-04T04:45:33;101870.38;;;9.93;100.00
60832;BME280;46665;51.558;-0.448;2023-06-04T04:47:59;101872.00;;;9.94;100.00
60832;BME280;46665;51.558;-0.448;2023-06-04T04:50:24;101870.09;;;9.94;100.00
60832;BME280;46665;51.558;-0.448;2023-06-04T04:52:50;101873.09;;;9.93;100.00
60832;BME280;46665;51.558;-0.448;2023-06-04T04:55:15;101880.88;;;9.89;100.00
60832;BME280;46665;51.558;-0.448;2023-06-04T04:57:40;101881.78;;;9.95;100.00
60832;BME280;46665;51.558;-0.448;2023-06-04T05:00:06;101878.25;;;9.94;100.00
60832;BME280;46665;51.558;-0.448;2023-06-04T05:02:35;101879.16;;;10.00;100.00
60832;BME280;46665;51.558;-0.448;2023-06-04T05:05:01;101881.06;;;9.99;100.00
60832;BME280;46665;51.558;-0.448;2023-06-04T05:07:27;101884.72;;;10.05;100.00
60832;BME280;46665;51.558;-0.448;2023-06-04T05:09:52;101885.84;;;10.09;100.00
60832;BME280;46665;51.558;-0.448;2023-06-04T05:12:17;101876.63;;;10.10;100.00
60832;BME280;46665;51.558;-0.448;2023-06-04T05:14:43;101889.31;;;10.22;100.00
60832;BME280;46665;51.558;-0.448;2023-06-04T05:17:09;101885.97;;;10.31;100.00
60832;BME280;46665;51.558;-0.448;2023-06-04T05:19:36;101885.28;;;10.41;100.00
60832;BME280;46665;51.558;-0.448;2023-06-04T05:22:02;101879.19;;;10.51;100.00
60832;BME280;46665;51.558;-0.448;2023-06-04T05:24:28;101892.16;;;10.66;100.00
60832;BME280;46665;51.558;-0.448;2023-06-04T05:26:54;101880.06;;;10.78;100.00
60832;BME280;46665;51.558;-0.448;2023-06-04T05:29:20;101885.66;;;10.89;100.00
60832;BME280;46665;51.558;-0.448;2023-06-04T05:31:45;101893.72;;;11.00;100.00
60832;BME280;46665;51.558;-0.448;2023-06-04T05:34:11;101883.25;;;11.14;100.00
60832;BME280;46665;51.558;-0.448;2023-06-04T05:36:40;101880.59;;;11.19;98.03
60832;BME280;46665;51.558;-0.448;2023-06-04T05:39:05;101896.91;;;11.41;99.02
60832;BME280;46665;51.558;-0.448;2023-06-04T05:41:32;101880.41;;;11.53;97.01
60832;BME280;46665;51.558;-0.448;2023-06-04T05:43:57;101894.94;;;11.64;95.76
60832;BME280;46665;51.558;-0.448;2023-06-04T05:46:22;101896.56;;;11.60;93.63
60832;BME280;46665;51.558;-0.448;2023-06-04T05:48:48;101900.50;;;11.74;95.62
60832;BME280;46665;51.558;-0.448;2023-06-04T05:51:14;101893.41;;;11.73;94.29
60832;BME280;46665;51.558;-0.448;2023-06-04T05:53:39;101900.56;;;11.79;93.44
60832;BME280;46665;51.558;-0.448;2023-06-04T05:56:05;101894.66;;;11.87;92.71
60832;BME280;46665;51.558;-0.448;2023-06-04T05:58:33;101899.38;;;11.97;92.31
60832;BME280;46665;51.558;-0.448;2023-06-04T06:00:59;101896.44;;;12.04;91.36
60832;BME280;46665;51.558;-0.448;2023-06-04T06:03:25;101899.78;;;12.11;89.80
60832;BME280;46665;51.558;-0.448;2023-06-04T06:05:52;101900.03;;;12.09;89.81
60832;BME280;46665;51.558;-0.448;2023-06-04T06:08:19;101894.59;;;12.14;89.25
60832;BME280;46665;51.558;-0.448;2023-06-04T06:10:45;101896.56;;;12.19;88.83
60832;BME280;46665;51.558;-0.448;2023-06-04T06:13:10;101902.22;;;12.12;88.43
60832;BME280;46665;51.558;-0.448;2023-06-04T06:15:35;101904.13;;;12.12;88.82
60832;BME280;46665;51.558;-0.448;2023-06-04T06:18:01;101899.78;;;12.11;88.17
60832;BME280;46665;51.558;-0.448;2023-06-04T06:20:27;101910.94;;;12.09;87.61
60832;BME280;46665;51.558;-0.448;2023-06-04T06:22:54;101907.41;;;12.09;88.24
60832;BME280;46665;51.558;-0.448;2023-06-04T06:25:19;101906.88;;;12.12;88.07
60832;BME280;46665;51.558;-0.448;2023-06-04T06:27:45;101894.38;;;12.16;87.46
60832;BME280;46665;51.558;-0.448;2023-06-04T06:30:10;101896.84;;;12.23;87.96
60832;BME280;46665;51.558;-0.448;2023-06-04T06:32:37;101897.72;;;12.28;87.04
60832;BME280;46665;51.558;-0.448;2023-06-04T06:35:03;101899.91;;;12.26;86.65
60832;BME280;46665;51.558;-0.448;2023-06-04T06:37:29;101897.72;;;12.28;86.85
60832;BME280;46665;51.558;-0.448;2023-06-04T06:39:54;101906.41;;;12.25;86.65
60832;BME280;46665;51.558;-0.448;2023-06-04T06:42:20;101906.16;;;12.27;85.47
60832;BME280;46665;51.558;-0.448;2023-06-04T06:44:45;101912.44;;;12.27;85.78
60832;BME280;46665;51.558;-0.448;2023-06-04T06:47:10;101908.69;;;12.33;85.17
60832;BME280;46665;51.558;-0.448;2023-06-04T06:49:40;101902.69;;;12.36;85.54
60832;BME280;46665;51.558;-0.448;2023-06-04T06:52:05;101908.75;;;12.44;84.81
60832;BME280;46665;51.558;-0.448;2023-06-04T06:54:31;101904.69;;;12.46;82.75
60832;BME280;46665;51.558;-0.448;2023-06-04T06:56:56;101905.53;;;12.52;82.42
60832;BME280;46665;51.558;-0.448;2023-06-04T06:59:24;101909.91;;;12.58;81.25
60832;BME280;46665;51.558;-0.448;2023-06-04T07:01:50;101901.47;;;12.60;80.02
60832;BME280;46665;51.558;-0.448;2023-06-04T07:04:16;101901.25;;;12.66;80.06
60832;BME280;46665;51.558;-0.448;2023-06-04T07:06:42;101909.72;;;12.70;78.69
60832;BME280;46665;51.558;-0.448;2023-06-04T07:09:08;101902.09;;;12.72;78.43
60832;BME280;46665;51.558;-0.448;2023-06-04T07:11:34;101909.22;;;12.78;78.05
60832;BME280;46665;51.558;-0.448;2023-06-04T07:14:00;101915.03;;;12.87;78.29
60832;BME280;46665;51.558;-0.448;2023-06-04T07:16:28;101904.38;;;12.90;78.43
60832;BME280;46665;51.558;-0.448;2023-06-04T07:18:53;101904.69;;;12.99;78.24
60832;BME280;46665;51.558;-0.448;2023-06-04T07:21:18;101899.78;;;13.06;77.76
60832;BME280;46665;51.558;-0.448;2023-06-04T07:23:44;101912.13;;;13.14;76.73
60832;BME280;46665;51.558;-0.448;2023-06-04T07:26:12;101904.78;;;13.19;76.07
60832;BME280;46665;51.558;-0.448;2023-06-04T07:28:37;101913.56;;;13.27;76.79
60832;BME280;46665;51.558;-0.448;2023-06-04T07:31:03;101919.03;;;13.32;75.39
60832;BME280;46665;51.558;-0.448;2023-06-04T07:33:28;101922.63;;;13.37;75.30
60832;BME280;46665;51.558;-0.448;2023-06-04T07:35:54;101916.91;;;13.44;75.09
60832;BME280;46665;51.558;-0.448;2023-06-04T07:38:19;101915.03;;;13.50;75.20
60832;BME280;46665;51.558;-0.448;2023-06-04T07:40:45;101915.56;;;13.57;75.87
60832;BME280;46665;51.558;-0.448;2023-06-04T07:43:11;101917.78;;;13.65;74.28
60832;BME280;46665;51.558;-0.448;2023-06-04T07:45:36;101924.91;;;13.76;72.81
60832;BME280;46665;51.558;-0.448;2023-06-04T07:48:01;101920.81;;;13.84;72.30
60832;BME280;46665;51.558;-0.448;2023-06-04T07:50:27;101927.41;;;13.93;70.88
60832;BME280;46665;51.558;-0.448;2023-06-04T07:52:52;101916.72;;;13.97;68.96
60832;BME280;46665;51.558;-0.448;2023-06-04T07:55:18;101913.72;;;14.03;69.12
60832;BME280;46665;51.558;-0.448;2023-06-04T07:57:43;101918.38;;;14.08;68.25
60832;BME280;46665;51.558;-0.448;2023-06-04T08:00:09;101919.19;;;14.14;67.67
60832;BME280;46665;51.558;-0.448;2023-06-04T08:02:37;101919.19;;;14.24;66.07
60832;BME280;46665;51.558;-0.448;2023-06-04T08:05:02;101919.44;;;14.27;65.23
60832;BME280;46665;51.558;-0.448;2023-06-04T08:07:29;101920.81;;;14.30;64.00
60832;BME280;46665;51.558;-0.448;2023-06-04T08:09:54;101924.91;;;14.38;64.79
60832;BME280;46665;51.558;-0.448;2023-06-04T08:12:21;101919.72;;;14.41;64.00
60832;BME280;46665;51.558;-0.448;2023-06-04T08:14:47;101924.63;;;14.49;63.48
60832;BME280;46665;51.558;-0.448;2023-06-04T08:17:12;101926.03;;;14.57;63.79
60832;BME280;46665;51.558;-0.448;2023-06-04T08:19:38;101921.34;;;14.63;63.30
60832;BME280;46665;51.558;-0.448;2023-06-04T08:22:03;101924.06;;;14.73;61.88
60832;BME280;46665;51.558;-0.448;2023-06-04T08:24:29;101913.38;;;14.77;61.71
60832;BME280;46665;51.558;-0.448;2023-06-04T08:26:54;101913.06;;;14.83;61.79
60832;BME280;46665;51.558;-0.448;2023-06-04T08:29:20;101908.13;;;14.90;60.84
60832;BME280;46665;51.558;-0.448;2023-06-04T08:31:46;101918.22;;;15.00;61.32
60832;BME280;46665;51.558;-0.448;2023-06-04T08:34:11;101915.72;;;15.09;61.50
60832;BME280;46665;51.558;-0.448;2023-06-04T08:36:37;101909.97;;;15.10;60.53
60832;BME280;46665;51.558;-0.448;2023-06-04T08:39:02;101911.88;;;15.15;60.94
60832;BME280;46665;51.558;-0.448;2023-06-04T08:41:51;101908.28;;;15.20;60.94
60832;BME280;46665;51.558;-0.448;2023-06-04T08:44:16;101917.03;;;15.27;61.47
60832;BME280;46665;51.558;-0.448;2023-06-04T08:46:43;101920.81;;;15.36;62.07
60832;BME280;46665;51.558;-0.448;2023-06-04T08:49:09;101927.34;;;15.45;61.71
60832;BME280;46665;51.558;-0.448;2023-06-04T08:51:37;101919.38;;;15.49;60.05
60832;BME280;46665;51.558;-0.448;2023-06-04T08:54:06;101924.28;;;15.52;59.44
60832;BME280;46665;51.558;-0.448;2023-06-04T08:56:34;101928.91;;;15.56;59.63
60832;BME280;46665;51.558;-0.448;2023-06-04T08:59:05;101933.56;;;15.61;58.90
60832;BME280;46665;51.558;-0.448;2023-06-04T09:01:34;101923.69;;;15.65;58.79
60832;BME280;46665;51.558;-0.448;2023-06-04T09:04:04;101929.97;;;15.71;58.44
60832;BME280;46665;51.558;-0.448;2023-06-04T09:06:32;101930.75;;;15.76;59.32
60832;BME280;46665;51.558;-0.448;2023-06-04T09:08:58;101933.75;;;15.80;58.50
60832;BME280;46665;51.558;-0.448;2023-06-04T09:11:27;101928.50;;;15.84;58.38
60832;BME280;46665;51.558;-0.448;2023-06-04T09:13:59;101931.47;;;15.92;58.43
60832;BME280;46665;51.558;-0.448;2023-06-04T09:16:26;101933.13;;;15.93;57.53
60832;BME280;46665;51.558;-0.448;2023-06-04T09:18:51;101923.75;;;15.94;57.50
60832;BME280;46665;51.558;-0.448;2023-06-04T09:21:18;101928.63;;;16.02;57.82
60832;BME280;46665;51.558;-0.448;2023-06-04T09:23:46;101929.13;;;16.10;57.21
60832;BME280;46665;51.558;-0.448;2023-06-04T09:26:12;101939.53;;;16.13;57.31
60832;BME280;46665;51.558;-0.448;2023-06-04T09:28:42;101932.38;;;16.17;57.38
60832;BME280;46665;51.558;-0.448;2023-06-04T09:31:09;101937.59;;;16.18;57.52
60832;BME280;46665;51.558;-0.448;2023-06-04T09:33:45;101933.34;;;16.31;59.43
60832;BME280;46665;51.558;-0.448;2023-06-04T09:36:11;101936.81;;;16.42;59.84
60832;BME280;46665;51.558;-0.448;2023-06-04T09:38:37;101925.19;;;16.50;58.80
60832;BME280;46665;51.558;-0.448;2023-06-04T09:41:03;101932.31;;;16.56;56.98
60832;BME280;46665;51.558;-0.448;2023-06-04T09:43:32;101936.03;;;16.65;58.21
60832;BME280;46665;51.558;-0.448;2023-06-04T09:46:15;101940.06;;;16.73;56.86
60832;BME280;46665;51.558;-0.448;2023-06-04T09:48:42;101939.50;;;16.76;56.25
60832;BME280;46665;51.558;-0.448;2023-06-04T09:51:13;101933.63;;;16.88;58.17
60832;BME280;46665;51.558;-0.448;2023-06-04T09:53:40;101942.06;;;16.97;56.19
60832;BME280;46665;51.558;-0.448;2023-06-04T09:56:06;101938.41;;;17.01;56.44
60832;BME280;46665;51.558;-0.448;2023-06-04T09:58:34;101939.75;;;17.04;55.95
60832;BME280;46665;51.558;-0.448;2023-06-04T10:01:01;101936.13;;;17.08;55.44
60832;BME280;46665;51.558;-0.448;2023-06-04T10:03:37;101943.75;;;17.17;56.29
60832;BME280;46665;51.558;-0.448;2023-06-04T10:06:05;101944.19;;;17.24;56.21
60832;BME280;46665;51.558;-0.448;2023-06-04T10:08:32;101943.03;;;17.30;54.55
60832;BME280;46665;51.558;-0.448;2023-06-04T10:11:01;101935.53;;;17.36;55.21
60832;BME280;46665;51.558;-0.448;2023-06-04T10:13:30;101937.91;;;17.42;54.39
60832;BME280;46665;51.558;-0.448;2023-06-04T10:15:57;101944.16;;;17.48;54.80
60832;BME280;46665;51.558;-0.448;2023-06-04T10:18:24;101948.25;;;17.50;54.03
60832;BME280;46665;51.558;-0.448;2023-06-04T10:20:53;101939.94;;;17.55;52.17
60832;BME280;46665;51.558;-0.448;2023-06-04T10:23:19;101941.78;;;17.60;53.94
60832;BME280;46665;51.558;-0.448;2023-06-04T10:25:48;101943.28;;;17.71;54.53
60832;BME280;46665;51.558;-0.448;2023-06-04T10:28:15;101946.03;;;17.71;53.66
60832;BME280;46665;51.558;-0.448;2023-06-04T10:30:40;101953.09;;;17.77;53.59
60832;BME280;46665;51.558;-0.448;2023-06-04T10:33:06;101948.97;;;17.80;53.15
60832;BME280;46665;51.558;-0.448;2023-06-04T10:35:35;101944.50;;;17.84;53.05
60832;BME280;46665;51.558;-0.448;2023-06-04T10:38:08;101947.31;;;17.98;54.36
60832;BME280;46665;51.558;-0.448;2023-06-04T10:40:35;101947.97;;;18.09;54.05
60832;BME280;46665;51.558;-0.448;2023-06-04T10:43:10;101949.22;;;18.16;53.31
60832;BME280;46665;51.558;-0.448;2023-06-04T10:45:37;101955.53;;;18.17;53.26
60832;BME280;46665;51.558;-0.448;2023-06-04T10:48:04;101938.63;;;18.24;53.21
60832;BME280;46665;51.558;-0.448;2023-06-04T10:50:31;101949.84;;;18.27;53.64
60832;BME280;46665;51.558;-0.448;2023-06-04T10:52:57;101947.03;;;18.32;52.53
60832;BME280;46665;51.558;-0.448;2023-06-04T10:55:24;101937.75;;;18.28;52.55
60832;BME280;46665;51.558;-0.448;2023-06-04T10:57:57;101944.09;;;18.42;53.05
60832;BME280;46665;51.558;-0.448;2023-06-04T11:00:34;101934.09;;;18.47;52.06
60832;BME280;46665;51.558;-0.448;2023-06-04T11:03:01;101942.69;;;18.59;52.76
60832;BME280;46665;51.558;-0.448;2023-06-04T11:05:46;101937.09;;;18.64;53.04
60832;BME280;46665;51.558;-0.448;2023-06-04T11:08:13;101938.72;;;18.65;52.25
60832;BME280;46665;51.558;-0.448;2023-06-04T11:10:44;101943.03;;;18.71;53.12
60832;BME280;46665;51.558;-0.448;2023-06-04T11:13:11;101934.59;;;18.81;52.59
60832;BME280;46665;51.558;-0.448;2023-06-04T11:15:40;101932.41;;;18.78;51.49
60832;BME280;46665;51.558;-0.448;2023-06-04T11:18:06;101930.41;;;18.84;52.60
60832;BME280;46665;51.558;-0.448;2023-06-04T11:20:32;101934.06;;;18.93;52.87
60832;BME280;46665;51.558;-0.448;2023-06-04T11:22:58;101935.00;;;19.02;52.69
60832;BME280;46665;51.558;-0.448;2023-06-04T11:25:29;101935.69;;;19.08;52.30
60832;BME280;46665;51.558;-0.448;2023-06-04T11:27:56;101940.50;;;19.16;52.17
60832;BME280;46665;51.558;-0.448;2023-06-04T11:30:23;101937.31;;;19.23;51.94
60832;BME280;46665;51.558;-0.448;2023-06-04T11:32:49;101941.00;;;19.32;50.69
60832;BME280;46665;51.558;-0.448;2023-06-04T11:35:15;101938.22;;;19.46;52.63
60832;BME280;46665;51.558;-0.448;2023-06-04T11:37:41;101940.47;;;19.44;51.01
60832;BME280;46665;51.558;-0.448;2023-06-04T11:40:17;101942.00;;;19.50;52.44
60832;BME280;46665;51.558;-0.448;2023-06-04T11:42:44;101947.06;;;19.57;51.42
60832;BME280;46665;51.558;-0.448;2023-06-04T11:45:14;101939.69;;;19.66;51.70
60832;BME280;46665;51.558;-0.448;2023-06-04T11:47:44;101943.69;;;19.74;52.21
60832;BME280;46665;51.558;-0.448;2023-06-04T11:50:11;101939.25;;;19.86;51.75
60832;BME280;46665;51.558;-0.448;2023-06-04T11:52:36;101934.16;;;19.80;49.60
60832;BME280;46665;51.558;-0.448;2023-06-04T11:55:03;101927.50;;;19.81;51.25
60832;BME280;46665;51.558;-0.448;2023-06-04T11:57:29;101925.00;;;19.93;50.94
60832;BME280;46665;51.558;-0.448;2023-06-04T11:59:55;101930.16;;;20.08;50.48
60832;BME280;46665;51.558;-0.448;2023-06-04T12:02:20;101920.47;;;20.20;50.76
60832;BME280;46665;51.558;-0.448;2023-06-04T12:04:46;101921.34;;;20.29;50.66
60832;BME280;46665;51.558;-0.448;2023-06-04T12:07:20;101913.81;;;20.21;49.15
60832;BME280;46665;51.558;-0.448;2023-06-04T12:09:50;101915.94;;;20.24;50.33
60832;BME280;46665;51.558;-0.448;2023-06-04T12:12:21;101920.41;;;20.33;49.66
60832;BME280;46665;51.558;-0.448;2023-06-04T12:14:47;101903.63;;;20.30;49.17
60832;BME280;46665;51.558;-0.448;2023-06-04T12:17:13;101908.56;;;20.42;49.24
60832;BME280;46665;51.558;-0.448;2023-06-04T12:19:49;101913.41;;;20.59;49.08
60832;BME280;46665;51.558;-0.448;2023-06-04T12:22:14;101905.72;;;20.55;47.25
60832;BME280;46665;51.558;-0.448;2023-06-04T12:24:53;101895.69;;;20.68;48.79
60832;BME280;46665;51.558;-0.448;2023-06-04T12:27:20;101897.50;;;20.64;47.88
60832;BME280;46665;51.558;-0.448;2023-06-04T12:30:02;101898.31;;;20.73;47.99
60832;BME280;46665;51.558;-0.448;2023-06-04T12:32:28;101905.16;;;20.76;45.92
60832;BME280;46665;51.558;-0.448;2023-06-04T12:34:55;101914.66;;;20.92;45.36
60832;BME280;46665;51.558;-0.448;2023-06-04T12:37:22;101913.38;;;20.98;42.44
60832;BME280;46665;51.558;-0.448;2023-06-04T12:39:47;101903.94;;;20.99;43.52